createdAt,value
2022-10-12T00:01:54.280Z,1.00
2022-10-12T00:04:21.566Z,1.38
2022-10-12T00:06:48.349Z,1.00
2022-10-12T00:09:14.998Z,0.98
2022-10-12T00:11:41.481Z,0.95
2022-10-12T00:14:07.868Z,1.10
2022-10-12T00:16:34.409Z,1.00
2022-10-12T00:19:01.580Z,0.90
2022-10-12T00:21:30.416Z,0.85
2022-10-12T00:24:02.608Z,1.02
2022-10-12T00:26:30.262Z,1.00
2022-10-12T00:29:01.914Z,0.85
2022-10-12T00:31:31.033Z,1.00
2022-10-12T00:34:01.292Z,1.02
2022-10-12T00:36:32.099Z,0.98
2022-10-12T00:38:59.723Z,0.80
2022-10-12T00:41:29.664Z,1.42
2022-10-12T00:43:58.967Z,1.10
2022-10-12T00:46:28.654Z,0.95
2022-10-12T00:49:16.869Z,0.85
2022-10-12T00:51:49.747Z,1.13
2022-10-12T00:54:23.117Z,1.38
2022-10-12T00:56:53.022Z,1.20
2022-10-12T00:59:35.951Z,1.05
2022-10-12T01:02:03.093Z,0.98
2022-10-12T01:04:32.638Z,1.15
2022-10-12T01:06:59.735Z,1.33
2022-10-12T01:09:28.161Z,0.80
2022-10-12T01:11:57.320Z,0.90
2022-10-12T01:14:24.742Z,0.90
2022-10-12T01:17:13.401Z,0.90
2022-10-12T01:20:14.669Z,1.10
2022-10-12T01:23:18.244Z,0.90
2022-10-12T01:25:46.559Z,0.95
2022-10-12T01:28:51.951Z,0.90
2022-10-12T01:31:33.040Z,0.90
2022-10-12T01:34:18.106Z,0.95
2022-10-12T01:36:53.921Z,1.30
2022-10-12T01:39:30.109Z,1.00
2022-10-12T01:42:07.003Z,0.95
2022-10-12T01:44:37.005Z,1.20
2022-10-12T01:47:05.695Z,1.13
2022-10-12T01:49:34.276Z,1.13
2022-10-12T01:52:18.334Z,0.88
2022-10-12T01:54:59.579Z,1.30
2022-10-12T01:57:32.355Z,0.90
2022-10-12T02:00:08.951Z,1.00
2022-10-12T02:02:53.846Z,1.13
2022-10-12T02:05:29.086Z,0.93
2022-10-12T02:08:05.328Z,1.05
2022-10-12T02:10:52.600Z,1.23
2022-10-12T02:13:22.636Z,1.17
2022-10-12T02:15:50.538Z,1.20
2022-10-12T02:18:19.434Z,0.90
2022-10-12T02:20:51.228Z,1.05
2022-10-12T02:23:18.962Z,0.90
2022-10-12T02:25:46.713Z,0.90
2022-10-12T02:28:18.188Z,1.20
2022-10-12T02:30:59.239Z,1.08
2022-10-12T02:33:57.394Z,1.05
2022-10-12T02:36:36.337Z,1.13
2022-10-12T02:39:12.202Z,1.00
2022-10-12T02:41:48.153Z,0.85
2022-10-12T02:44:20.402Z,1.08
2022-10-12T02:46:49.563Z,0.93
2022-10-12T02:49:18.574Z,1.20
2022-10-12T02:51:46.635Z,1.00
2022-10-12T02:54:14.560Z,0.90
2022-10-12T02:56:46.669Z,0.90
2022-10-12T02:59:16.473Z,1.10
2022-10-12T03:01:43.836Z,0.90
2022-10-12T03:04:10.278Z,1.10
2022-10-12T03:06:36.814Z,1.20
2022-10-12T03:09:05.514Z,0.82
2022-10-12T03:11:32.303Z,0.80
2022-10-12T03:14:00.062Z,0.90
2022-10-12T03:16:27.358Z,0.60
2022-10-12T03:18:53.927Z,0.95
2022-10-12T03:21:21.187Z,0.90
2022-10-12T03:23:48.998Z,0.90
2022-10-12T03:26:15.457Z,0.73
2022-10-12T03:28:42.099Z,1.10
2022-10-12T03:31:10.192Z,0.70
2022-10-12T03:33:36.737Z,0.80
2022-10-12T03:36:03.648Z,1.08
2022-10-12T03:38:31.118Z,1.00
2022-10-12T03:40:57.462Z,0.80
2022-10-12T03:43:23.943Z,1.10
2022-10-12T03:45:52.691Z,0.88
2022-10-12T03:48:20.777Z,0.90
2022-10-12T03:50:52.216Z,0.80
2022-10-12T03:53:19.926Z,0.90
2022-10-12T03:55:47.314Z,1.00
2022-10-12T03:58:13.544Z,0.73
2022-10-12T04:00:41.974Z,0.88
2022-10-12T04:03:08.532Z,1.02
2022-10-12T04:05:35.346Z,0.80
2022-10-12T04:08:03.080Z,0.90
2022-10-12T04:10:30.070Z,0.85
2022-10-12T04:12:57.659Z,0.90
2022-10-12T04:15:24.212Z,0.77
2022-10-12T04:17:51.444Z,0.80
2022-10-12T04:20:18.402Z,0.85
2022-10-12T04:22:45.497Z,0.77
2022-10-12T04:25:12.897Z,0.77
2022-10-12T04:27:39.947Z,0.90
2022-10-12T04:30:07.717Z,1.08
2022-10-12T04:32:33.887Z,0.95
2022-10-12T04:35:00.459Z,1.00
2022-10-12T04:37:28.071Z,0.85
2022-10-12T04:39:55.460Z,0.80
2022-10-12T04:42:22.450Z,0.80
2022-10-12T04:44:50.074Z,0.70
2022-10-12T04:47:18.032Z,0.80
2022-10-12T04:49:44.483Z,0.80
2022-10-12T04:52:12.006Z,0.80
2022-10-12T04:54:39.320Z,0.77
2022-10-12T04:57:05.864Z,0.98
2022-10-12T04:59:32.468Z,1.00
2022-10-12T05:01:58.914Z,0.90
2022-10-12T05:04:25.750Z,1.00
2022-10-12T05:06:52.322Z,1.05
2022-10-12T05:09:18.524Z,1.00
2022-10-12T05:11:46.407Z,1.00
2022-10-12T05:14:12.887Z,1.20
2022-10-12T05:16:39.647Z,1.40
2022-10-12T05:19:06.314Z,1.50
2022-10-12T05:21:33.265Z,1.73
2022-10-12T05:23:59.685Z,2.17
2022-10-12T05:26:27.718Z,1.65
2022-10-12T05:28:54.299Z,1.90
2022-10-12T05:31:21.309Z,1.88
2022-10-12T05:33:47.715Z,2.20
2022-10-12T05:36:14.660Z,1.80
2022-10-12T05:38:41.459Z,2.35
2022-10-12T05:41:07.688Z,2.50
2022-10-12T05:43:35.553Z,2.25
2022-10-12T05:46:02.591Z,2.15
2022-10-12T05:48:30.736Z,2.10
2022-10-12T05:50:58.038Z,2.35
2022-10-12T05:53:25.860Z,2.55
2022-10-12T05:55:57.620Z,2.65
2022-10-12T05:58:26.926Z,2.47
2022-10-12T06:00:55.233Z,2.58
2022-10-12T06:03:25.963Z,2.65
2022-10-12T06:05:54.154Z,2.60
2022-10-12T06:08:20.920Z,2.60
2022-10-12T06:10:50.242Z,2.95
2022-10-12T06:13:19.179Z,2.63
2022-10-12T06:15:48.085Z,2.65
2022-10-12T06:18:16.220Z,2.80
2022-10-12T06:21:08.843Z,2.40
2022-10-12T06:23:39.998Z,2.10
2022-10-12T06:26:06.486Z,2.03
2022-10-12T06:28:33.117Z,2.70
2022-10-12T06:31:00.337Z,2.30
2022-10-12T06:33:27.300Z,2.60
2022-10-12T06:35:55.027Z,2.13
2022-10-12T06:38:21.995Z,2.40
2022-10-12T06:40:48.772Z,2.03
2022-10-12T06:43:15.533Z,1.85
2022-10-12T06:45:42.191Z,2.58
2022-10-12T06:48:09.370Z,2.15
2022-10-12T06:50:37.141Z,2.38
2022-10-12T06:53:05.005Z,2.20
2022-10-12T06:55:32.588Z,2.13
2022-10-12T06:57:59.502Z,2.25
2022-10-12T07:00:26.689Z,2.83
2022-10-12T07:02:53.729Z,2.03
2022-10-12T07:05:21.028Z,2.40
2022-10-12T07:07:50.626Z,2.13
2022-10-12T07:10:17.666Z,1.73
2022-10-12T07:12:45.352Z,1.88
2022-10-12T07:15:13.044Z,2.20
2022-10-12T07:17:41.144Z,1.60
2022-10-12T07:20:10.335Z,2.22
2022-10-12T07:22:36.777Z,1.88
2022-10-12T07:25:03.553Z,2.15
2022-10-12T07:27:33.066Z,2.00
2022-10-12T07:29:59.737Z,2.08
2022-10-12T07:32:27.002Z,2.00
2022-10-12T07:34:53.540Z,1.67
2022-10-12T07:37:20.790Z,1.92
2022-10-12T07:39:47.321Z,2.15
2022-10-12T07:42:18.322Z,2.08
2022-10-12T07:44:46.886Z,1.77
2022-10-12T07:47:16.026Z,1.90
2022-10-12T07:49:43.146Z,1.70
2022-10-12T07:52:10.778Z,1.70
2022-10-12T07:54:38.238Z,1.70
2022-10-12T07:57:04.632Z,1.50
2022-10-12T07:59:30.846Z,1.65
2022-10-12T08:01:57.750Z,1.80
2022-10-12T08:04:26.225Z,1.60
2022-10-12T08:06:54.438Z,1.77
2022-10-12T08:09:21.857Z,1.63
2022-10-12T08:11:51.253Z,1.63
2022-10-12T08:14:17.492Z,1.40
2022-10-12T08:16:45.481Z,1.70
2022-10-12T08:19:13.289Z,1.35
2022-10-12T08:21:42.078Z,1.42
2022-10-12T08:24:11.799Z,1.95
2022-10-12T08:26:39.908Z,1.65
2022-10-12T08:29:08.230Z,1.38
2022-10-12T08:31:34.824Z,1.35
2022-10-12T08:34:02.001Z,1.60
2022-10-12T08:36:30.495Z,1.80
2022-10-12T08:38:57.167Z,1.40
2022-10-12T08:41:57.965Z,1.40
2022-10-12T08:44:27.351Z,1.23
2022-10-12T08:47:07.234Z,1.40
2022-10-12T08:49:33.435Z,1.40
2022-10-12T08:52:06.057Z,1.55
2022-10-12T08:54:41.642Z,1.70
2022-10-12T08:57:18.071Z,1.60
2022-10-12T08:59:47.153Z,1.20
2022-10-12T09:02:32.201Z,1.35
2022-10-12T09:05:44.506Z,1.60
2022-10-12T09:08:57.499Z,1.50
2022-10-12T09:11:36.781Z,1.40
2022-10-12T09:14:33.476Z,1.30
2022-10-12T09:17:05.255Z,1.05
2022-10-12T09:19:43.328Z,1.08
2022-10-12T09:22:49.373Z,1.17
2022-10-12T09:25:17.993Z,1.45
2022-10-12T09:27:47.764Z,1.48
2022-10-12T09:30:18.508Z,1.35
2022-10-12T09:33:13.578Z,1.27
2022-10-12T09:35:42.220Z,1.35
2022-10-12T09:38:11.320Z,1.50
2022-10-12T09:40:39.843Z,1.45
2022-10-12T09:43:08.602Z,1.50
2022-10-12T09:45:37.138Z,1.63
2022-10-12T09:48:11.127Z,1.52
2022-10-12T09:50:45.749Z,1.45
2022-10-12T09:53:25.071Z,1.38
2022-10-12T09:55:56.817Z,1.40
2022-10-12T09:58:25.460Z,1.67
2022-10-12T10:01:26.262Z,1.75
2022-10-12T10:04:23.676Z,1.80
2022-10-12T10:06:51.450Z,1.38
2022-10-12T10:09:33.708Z,1.48
2022-10-12T10:12:23.879Z,1.60
2022-10-12T10:14:53.194Z,1.60
2022-10-12T10:17:31.990Z,1.80
2022-10-12T10:20:05.429Z,1.70
2022-10-12T10:22:34.570Z,1.75
2022-10-12T10:25:03.424Z,1.60
2022-10-12T10:27:43.565Z,1.80
2022-10-12T10:30:40.603Z,1.77
2022-10-12T10:33:19.284Z,1.50
2022-10-12T10:36:23.427Z,1.33
2022-10-12T10:39:02.256Z,1.60
2022-10-12T10:41:41.002Z,1.73
2022-10-12T10:44:28.853Z,1.35
2022-10-12T10:47:02.494Z,1.52
2022-10-12T10:49:39.489Z,1.67
2022-10-12T10:52:18.120Z,1.48
2022-10-12T10:54:46.420Z,1.70
2022-10-12T10:57:21.907Z,1.27
2022-10-12T11:00:37.467Z,1.65
2022-10-12T11:02:56.475Z,1.50
2022-10-12T11:05:28.491Z,1.88
2022-10-12T11:08:06.713Z,1.48
2022-10-12T11:10:47.626Z,1.50
2022-10-12T11:13:56.514Z,1.40
2022-10-12T11:16:45.439Z,1.50
2022-10-12T11:19:13.463Z,1.52
2022-10-12T11:21:55.943Z,1.33
2022-10-12T11:24:43.806Z,1.50
2022-10-12T11:27:23.113Z,1.50
2022-10-12T11:30:08.295Z,1.27
2022-10-12T11:32:41.407Z,1.40
2022-10-12T11:35:16.407Z,1.40
2022-10-12T11:37:47.443Z,1.42
2022-10-12T11:40:48.642Z,1.13
2022-10-12T11:43:31.383Z,1.10
2022-10-12T11:46:02.511Z,1.38
2022-10-12T11:48:38.812Z,1.58
2022-10-12T11:51:06.181Z,1.52
2022-10-12T11:53:51.742Z,1.23
2022-10-12T11:56:19.532Z,1.35
2022-10-12T11:59:00.636Z,1.10
2022-10-12T12:01:39.646Z,1.63
2022-10-12T12:04:40.752Z,1.40
2022-10-12T12:07:16.574Z,1.30
2022-10-12T12:09:50.091Z,1.25
2022-10-12T12:12:57.613Z,1.17
2022-10-12T12:15:25.381Z,1.05
2022-10-12T12:18:19.900Z,1.30
2022-10-12T12:20:50.090Z,1.50
2022-10-12T12:23:31.416Z,1.40
2022-10-12T12:26:16.061Z,1.35
2022-10-12T12:29:12.962Z,1.60
2022-10-12T12:31:40.035Z,1.38
2022-10-12T12:34:16.174Z,1.60
2022-10-12T12:36:46.715Z,1.38
2022-10-12T12:39:30.747Z,1.50
2022-10-12T12:42:02.449Z,1.50
2022-10-12T12:44:43.043Z,1.30
2022-10-12T12:50:05.202Z,1.17
2022-10-12T12:52:34.912Z,1.63
2022-10-12T12:55:22.986Z,1.20
2022-10-12T12:58:16.069Z,1.20
2022-10-12T13:01:01.578Z,1.35
2022-10-12T13:03:56.189Z,1.55
2022-10-12T13:06:46.882Z,1.52
2022-10-12T13:09:33.295Z,1.50
2022-10-12T13:12:34.734Z,1.20
2022-10-12T13:15:26.136Z,1.40
2022-10-12T13:18:23.308Z,1.30
2022-10-12T13:21:04.528Z,1.27
2022-10-12T13:23:32.454Z,1.25
2022-10-12T13:26:05.120Z,0.95
2022-10-12T13:28:37.476Z,1.05
2022-10-12T13:31:08.423Z,1.10
2022-10-12T13:33:53.565Z,1.15
2022-10-12T13:36:25.073Z,1.30
2022-10-12T13:39:06.615Z,1.00
2022-10-12T13:41:35.409Z,1.10
2022-10-12T13:44:07.262Z,1.40
2022-10-12T13:46:46.377Z,1.10
2022-10-12T13:49:26.819Z,1.30
2022-10-12T13:52:02.416Z,0.93
2022-10-12T13:54:31.758Z,1.20
2022-10-12T13:57:03.237Z,1.30
2022-10-12T13:59:38.120Z,1.00
2022-10-12T14:02:18.276Z,1.27
2022-10-12T14:04:45.279Z,1.10
2022-10-12T14:07:21.444Z,0.98
2022-10-12T14:09:55.454Z,1.10
2022-10-12T14:12:25.560Z,1.00
2022-10-12T14:14:53.019Z,0.80
2022-10-12T14:17:22.620Z,1.10
2022-10-12T14:19:56.144Z,1.10
2022-10-12T14:22:34.388Z,0.93
2022-10-12T14:25:24.826Z,1.08
2022-10-12T14:28:04.699Z,1.20
2022-10-12T14:30:34.968Z,1.00
2022-10-12T14:33:16.930Z,0.85
2022-10-12T14:35:49.836Z,0.93
2022-10-12T14:38:42.186Z,1.00
2022-10-12T14:41:29.657Z,1.25
2022-10-12T14:44:17.988Z,1.20
2022-10-12T14:47:19.973Z,1.00
2022-10-12T14:49:50.158Z,0.90
2022-10-12T14:52:42.418Z,1.00
2022-10-12T14:55:20.914Z,1.20
2022-10-12T14:57:48.417Z,1.10
2022-10-12T15:00:23.740Z,1.02
2022-10-12T15:02:50.901Z,1.00
2022-10-12T15:05:24.841Z,1.20
2022-10-12T15:07:53.703Z,1.10
2022-10-12T15:10:22.631Z,1.05
2022-10-12T15:12:51.749Z,0.93
2022-10-12T15:15:32.743Z,0.93
2022-10-12T15:17:59.405Z,0.80
2022-10-12T15:20:30.522Z,1.00
2022-10-12T15:22:59.828Z,0.80
2022-10-12T15:25:31.939Z,1.15
2022-10-12T15:27:59.797Z,1.02
2022-10-12T15:30:26.656Z,1.23
2022-10-12T15:32:53.216Z,1.10
2022-10-12T15:35:28.097Z,1.00
2022-10-12T15:37:58.612Z,1.00
2022-10-12T15:40:31.428Z,0.90
2022-10-12T15:43:00.659Z,1.17
2022-10-12T15:45:35.131Z,1.10
2022-10-12T15:48:06.121Z,1.20
2022-10-12T15:50:42.943Z,0.98
2022-10-12T15:53:15.449Z,1.15
2022-10-12T15:55:42.182Z,1.20
2022-10-12T15:58:10.307Z,1.35
2022-10-12T16:00:37.463Z,1.15
2022-10-12T16:03:06.547Z,1.13
2022-10-12T16:05:38.495Z,1.23
2022-10-12T16:08:07.108Z,1.17
2022-10-12T16:10:39.706Z,1.52
2022-10-12T16:13:10.333Z,1.25
2022-10-12T16:15:38.818Z,1.30
2022-10-12T16:18:08.131Z,1.25
2022-10-12T16:20:38.238Z,1.48
2022-10-12T16:23:11.818Z,1.10
2022-10-12T16:25:41.049Z,1.75
2022-10-12T16:28:08.358Z,1.60
2022-10-12T16:30:35.838Z,1.13
2022-10-12T16:33:03.155Z,1.52
2022-10-12T16:35:29.353Z,1.50
2022-10-12T16:37:56.947Z,1.90
2022-10-12T16:40:23.339Z,1.80
2022-10-12T16:42:53.472Z,1.52
2022-10-12T16:45:26.503Z,1.70
2022-10-12T16:47:56.118Z,1.73
2022-10-12T16:50:24.741Z,1.30
2022-10-12T16:52:51.841Z,1.45
2022-10-12T16:55:20.235Z,1.45
2022-10-12T16:57:48.178Z,1.60
2022-10-12T17:00:20.244Z,1.48
2022-10-12T17:02:48.538Z,1.80
2022-10-12T17:05:16.698Z,2.40
2022-10-12T17:07:43.933Z,1.83
2022-10-12T17:10:12.223Z,2.13
2022-10-12T17:12:39.894Z,1.90
2022-10-12T17:15:07.962Z,1.85
2022-10-12T17:17:36.766Z,1.75
2022-10-12T17:20:04.736Z,1.70
2022-10-12T17:22:31.796Z,1.92
2022-10-12T17:24:59.730Z,1.80
2022-10-12T17:27:32.068Z,1.58
2022-10-12T17:30:01.216Z,1.73
2022-10-12T17:32:28.582Z,1.75
2022-10-12T17:34:55.185Z,1.73
2022-10-12T17:37:21.649Z,1.50
2022-10-12T17:39:50.058Z,1.88
2022-10-12T17:42:19.571Z,1.55
2022-10-12T17:44:47.484Z,1.50
2022-10-12T17:47:16.158Z,2.10
2022-10-12T17:49:43.241Z,1.67
2022-10-12T17:52:10.656Z,1.85
2022-10-12T17:54:37.610Z,1.60
2022-10-12T17:57:04.303Z,1.52
2022-10-12T17:59:30.798Z,1.92
2022-10-12T18:01:57.576Z,1.42
2022-10-12T18:04:26.318Z,1.67
2022-10-12T18:06:53.647Z,1.73
2022-10-12T18:09:20.909Z,1.65
2022-10-12T18:11:48.392Z,1.80
2022-10-12T18:14:15.988Z,1.50
2022-10-12T18:16:43.904Z,1.88
2022-10-12T18:19:12.868Z,1.50
2022-10-12T18:21:40.276Z,1.77
2022-10-12T18:24:16.044Z,1.50
2022-10-12T18:26:45.787Z,1.42
2022-10-12T18:29:14.885Z,1.70
2022-10-12T18:31:42.504Z,1.63
2022-10-12T18:34:10.254Z,1.50
2022-10-12T18:36:39.250Z,1.73
2022-10-12T18:39:06.456Z,1.65
2022-10-12T18:41:34.016Z,1.45
2022-10-12T18:44:01.965Z,1.58
2022-10-12T18:46:32.811Z,1.80
2022-10-12T18:49:02.450Z,1.50
2022-10-12T18:51:32.443Z,1.52
2022-10-12T18:54:00.140Z,1.70
2022-10-12T18:56:28.633Z,1.42
2022-10-12T18:59:00.429Z,1.55
2022-10-12T19:01:30.481Z,1.60
2022-10-12T19:03:59.244Z,1.60
2022-10-12T19:06:30.324Z,1.38
2022-10-12T19:08:58.471Z,1.45
2022-10-12T19:11:26.978Z,1.70
2022-10-12T19:13:57.121Z,1.60
2022-10-12T19:16:24.461Z,1.60
2022-10-12T19:19:03.143Z,1.70
2022-10-12T19:21:30.206Z,1.77
2022-10-12T19:23:56.893Z,1.50
2022-10-12T19:26:27.081Z,1.90
2022-10-12T19:28:56.782Z,1.30
2022-10-12T19:31:31.090Z,1.80
2022-10-12T19:34:02.744Z,1.60
2022-10-12T19:36:31.378Z,1.38
2022-10-12T19:39:01.206Z,1.60
2022-10-12T19:41:30.191Z,1.65
2022-10-12T19:43:59.502Z,1.70
2022-10-12T19:46:28.005Z,1.77
2022-10-12T19:48:57.106Z,1.50
2022-10-12T19:51:26.505Z,1.60
2022-10-12T19:53:56.933Z,1.70
2022-10-12T19:56:24.334Z,1.65
2022-10-12T19:58:52.710Z,1.70
2022-10-12T20:01:25.454Z,1.50
2022-10-12T20:03:54.256Z,1.55
2022-10-12T20:06:24.170Z,1.60
2022-10-12T20:08:52.437Z,1.60
2022-10-12T20:11:24.349Z,1.63
2022-10-12T20:13:52.433Z,1.63
2022-10-12T20:16:20.766Z,1.50
2022-10-12T20:18:49.175Z,1.55
2022-10-12T20:21:21.223Z,1.38
2022-10-12T20:23:49.331Z,1.50
2022-10-12T20:26:23.614Z,1.60
2022-10-12T20:28:51.516Z,1.60
2022-10-12T20:31:23.526Z,1.67
2022-10-12T20:33:52.261Z,1.50
2022-10-12T20:36:22.181Z,1.42
2022-10-12T20:38:48.965Z,1.70
2022-10-12T20:41:20.925Z,1.48
2022-10-12T20:43:48.612Z,1.60
2022-10-12T20:46:17.229Z,1.40
2022-10-12T20:48:44.802Z,1.35
2022-10-12T20:51:22.271Z,1.40
2022-10-12T20:53:52.685Z,1.25
2022-10-12T20:56:20.300Z,1.70
2022-10-12T20:58:48.551Z,1.75
2022-10-12T21:01:16.783Z,1.48
2022-10-12T21:03:43.441Z,1.55
2022-10-12T21:06:12.141Z,1.50
2022-10-12T21:08:39.965Z,1.50
2022-10-12T21:11:11.082Z,1.70
2022-10-12T21:13:43.369Z,1.70
2022-10-12T21:16:11.191Z,1.70
2022-10-12T21:18:40.698Z,1.70
2022-10-12T21:21:13.542Z,1.60
2022-10-12T21:23:42.460Z,1.40
2022-10-12T21:26:10.285Z,1.63
2022-10-12T21:28:37.972Z,1.42
2022-10-12T21:31:04.451Z,1.30
2022-10-12T21:33:30.718Z,1.58
2022-10-12T21:36:17.919Z,1.55
2022-10-12T21:38:44.767Z,1.40
2022-10-12T21:41:13.648Z,1.40
2022-10-12T21:43:42.945Z,1.40
2022-10-12T21:46:15.920Z,1.38
2022-10-12T21:48:44.123Z,1.60
2022-10-12T21:51:10.794Z,1.42
2022-10-12T21:53:40.058Z,1.42
2022-10-12T21:56:22.097Z,1.85
2022-10-12T21:58:49.803Z,1.60
2022-10-12T22:01:21.548Z,1.42
2022-10-12T22:03:52.171Z,1.50
2022-10-12T22:06:21.930Z,1.40
2022-10-12T22:08:57.987Z,1.38
2022-10-12T22:11:27.239Z,1.38
2022-10-12T22:14:00.176Z,1.52
2022-10-12T22:16:29.639Z,1.40
2022-10-12T22:19:02.800Z,1.40
2022-10-12T22:21:30.098Z,1.70
2022-10-12T22:23:57.602Z,1.70
2022-10-12T22:26:25.686Z,1.48
2022-10-12T22:28:54.218Z,1.55
2022-10-12T22:31:24.383Z,1.77
2022-10-12T22:33:53.015Z,1.52
2022-10-12T22:36:20.629Z,1.60
2022-10-12T22:38:47.708Z,1.30
2022-10-12T22:41:20.346Z,1.80
2022-10-12T22:43:52.727Z,1.50
2022-10-12T22:46:21.351Z,1.42
2022-10-12T22:48:49.292Z,1.80
2022-10-12T22:51:25.567Z,1.35
2022-10-12T22:53:52.597Z,1.40
2022-10-12T22:56:19.686Z,1.48
2022-10-12T22:58:48.848Z,1.50
2022-10-12T23:01:17.043Z,1.48
2022-10-12T23:03:45.283Z,1.73
2022-10-12T23:06:14.222Z,1.67
2022-10-12T23:08:41.681Z,1.35
2022-10-12T23:11:17.869Z,1.40
2022-10-12T23:13:45.803Z,1.40
2022-10-12T23:16:19.348Z,1.42
2022-10-12T23:18:46.381Z,1.38
2022-10-12T23:21:16.679Z,1.52
2022-10-12T23:23:46.079Z,1.65
2022-10-12T23:26:20.064Z,1.27
2022-10-12T23:29:05.729Z,1.60
2022-10-12T23:31:32.983Z,1.60
2022-10-12T23:34:03.349Z,1.50
2022-10-12T23:36:31.181Z,1.70
2022-10-12T23:39:02.838Z,1.20
2022-10-12T23:41:29.393Z,1.52
2022-10-12T23:43:57.729Z,1.60
2022-10-12T23:46:24.769Z,1.60
2022-10-12T23:48:51.065Z,1.70
2022-10-12T23:51:18.559Z,1.33
2022-10-12T23:53:44.813Z,1.38
2022-10-12T23:56:11.895Z,1.70
2022-10-12T23:58:40.819Z,1.80
